Time;durP1;ratioP1;P1;durP2;ratioP2;P2;SDS_P1;SDS_P2;PMS_P1;PMS_P2;Temp;Humidity;BMP_temperature;BMP_pressure;BME280_temperature;BME280_humidity;BME280_pressure;Samples;Min_cycle;Max_cycle;Signal;HPM_P1;HPM_P2
2022/06/16 00:02:15;;;;;;;9.38;4.10;;;14.00;99.90;;;;;;5036661;28;20457;-55
2022/06/16 00:04:46;;;;;;;10.40;4.00;;;13.90;99.90;;;;;;5054658;28;20399;-55
2022/06/16 00:07:15;;;;;;;9.98;4.55;;;14.30;99.90;;;;;;5054458;28;20064;-55
2022/06/16 00:09:41;;;;;;;8.68;4.20;;;13.70;99.90;;;;;;5054601;28;20053;-55
2022/06/16 00:12:07;;;;;;;8.25;4.55;;;13.90;99.90;;;;;;5054479;28;20037;-55
2022/06/16 00:14:33;;;;;;;13.15;4.63;;;13.90;99.90;;;;;;5054359;28;20090;-56
2022/06/16 00:16:59;;;;;;;8.82;4.63;;;13.30;99.90;;;;;;5036362;28;20053;-55
2022/06/16 00:19:25;;;;;;;8.38;4.38;;;13.80;99.90;;;;;;5054167;28;20455;-55
2022/06/16 00:21:51;;;;;;;7.22;4.35;;;13.70;99.90;;;;;;5054501;28;20498;-55
2022/06/16 00:24:16;;;;;;;9.77;4.53;;;13.80;99.90;;;;;;5054345;28;20049;-53
2022/06/16 00:26:42;;;;;;;9.50;4.45;;;13.80;99.90;;;;;;5054548;28;20045;-54
2022/06/16 00:29:08;;;;;;;9.10;4.47;;;13.60;99.90;;;;;;5036240;28;20404;-54
2022/06/16 00:31:35;;;;;;;11.15;4.47;;;13.50;99.90;;;;;;5054159;28;20195;-55
2022/06/16 00:34:00;;;;;;;9.48;4.90;;;14.40;99.90;;;;;;5053905;28;20102;-55
2022/06/16 00:36:26;;;;;;;10.55;5.00;;;13.90;99.90;;;;;;5054221;28;20132;-55
2022/06/16 00:38:52;;;;;;;7.88;4.80;;;13.80;99.90;;;;;;5054059;28;20045;-55
2022/06/16 00:41:18;;;;;;;9.25;4.32;;;13.60;99.90;;;;;;5053935;28;20044;-54
2022/06/16 00:43:44;;;;;;;8.27;4.47;;;13.50;99.90;;;;;;5053849;28;20048;-55
2022/06/16 00:46:14;;;;;;;8.93;4.65;;;13.90;99.90;;;;;;5053756;28;20094;-54
2022/06/16 00:48:56;;;;;;;9.35;4.43;;;13.50;99.90;;;;;;5053627;28;20052;-55
2022/06/16 00:51:27;;;;;;;8.52;4.10;;;13.70;99.90;;;;;;5053579;28;20106;-55
2022/06/16 00:54:39;;;;;;;9.93;4.32;;;13.10;99.90;;;;;;5053489;28;20492;-55
2022/06/16 00:57:14;;;;;;;8.65;4.15;;;13.50;99.90;;;;;;4976207;28;20233;-54
2022/06/16 00:59:43;;;;;;;8.02;4.60;;;13.50;99.90;;;;;;4991412;28;20050;-55
2022/06/16 01:02:09;;;;;;;9.63;4.35;;;13.50;99.90;;;;;;4991685;28;20049;-54
2022/06/16 01:04:51;;;;;;;9.70;4.05;;;13.50;99.90;;;;;;4991992;28;20082;-55
2022/06/16 01:07:23;;;;;;;8.60;4.35;;;13.50;99.90;;;;;;5002233;28;20107;-54
2022/06/16 01:09:51;;;;;;;9.85;4.05;;;13.70;99.90;;;;;;5011164;28;20053;-54
2022/06/16 01:16:00;;;;;;;10.27;4.68;;;13.20;99.90;;;;;;5011658;28;20056;-54
2022/06/16 01:18:35;;;;;;;8.32;4.35;;;13.40;99.90;;;;;;5011693;28;20077;-55
2022/06/16 01:21:15;;;;;;;8.07;4.47;;;13.30;99.90;;;;;;5011546;28;20461;-55
2022/06/16 01:23:43;;;;;;;8.52;4.18;;;13.40;99.90;;;;;;5011567;28;20065;-55
2022/06/16 01:26:26;;;;;;;8.05;4.20;;;13.40;99.90;;;;;;5011501;28;20082;-54
2022/06/16 01:29:17;;;;;;;8.15;4.20;;;12.60;99.90;;;;;;5068805;28;20110;-54
2022/06/16 01:32:15;;;;;;;11.60;4.55;;;13.40;99.90;;;;;;5073508;28;20155;-54
2022/06/16 01:34:46;;;;;;;12.90;4.93;;;13.20;99.90;;;;;;5011105;28;20206;-54
2022/06/16 01:37:39;;;;;;;11.88;5.15;;;13.50;99.90;;;;;;5011410;28;20054;-54
2022/06/16 01:40:30;;;;;;;9.93;5.30;;;12.80;99.90;;;;;;5011430;28;20050;-54
2022/06/16 01:43:02;;;;;;;13.07;5.20;;;12.60;99.90;;;;;;4988969;28;20045;-54
2022/06/16 01:45:51;;;;;;;9.77;5.13;;;12.60;99.90;;;;;;5011444;28;20050;-54
2022/06/16 01:48:18;;;;;;;10.65;5.10;;;12.80;99.90;;;;;;4995114;28;20054;-54
2022/06/16 01:51:01;;;;;;;11.55;5.43;;;13.10;99.90;;;;;;5011154;28;20054;-54
2022/06/16 01:54:02;;;;;;;10.13;5.15;;;12.80;99.90;;;;;;5010549;28;20089;-54
2022/06/16 01:56:37;;;;;;;9.07;4.60;;;12.70;99.90;;;;;;4979794;28;20145;-53
2022/06/16 01:59:11;;;;;;;11.73;5.20;;;12.80;99.90;;;;;;5011117;28;20050;-54
2022/06/16 02:01:49;;;;;;;9.57;4.50;;;12.60;99.90;;;;;;4994552;28;20078;-54
2022/06/16 02:04:22;;;;;;;9.23;5.28;;;12.10;99.90;;;;;;4995065;28;20053;-54
2022/06/16 02:06:54;;;;;;;10.40;5.10;;;12.60;99.90;;;;;;5010986;28;20449;-53
2022/06/16 02:09:27;;;;;;;10.32;4.90;;;12.60;99.90;;;;;;5018342;28;20166;-54
2022/06/16 02:11:55;;;;;;;10.88;5.20;;;12.60;99.90;;;;;;5072708;28;20048;-53
2022/06/16 02:14:40;;;;;;;12.90;5.10;;;12.90;99.90;;;;;;5072699;28;20044;-53
2022/06/16 02:17:07;;;;;;;10.25;5.18;;;12.40;99.90;;;;;;5074528;28;20040;-53
2022/06/16 02:19:32;;;;;;;9.07;5.30;;;12.30;99.90;;;;;;5076660;28;20037;-53
2022/06/16 02:21:59;;;;;;;8.32;4.85;;;12.50;99.90;;;;;;5076598;28;20397;-54
2022/06/16 02:24:27;;;;;;;10.73;5.20;;;13.20;99.90;;;;;;5058327;28;20052;-53
2022/06/16 02:26:55;;;;;;;9.00;4.80;;;12.60;99.90;;;;;;5076639;28;20074;-52
2022/06/16 02:29:21;;;;;;;10.30;4.40;;;12.70;99.90;;;;;;5076382;28;20055;-53
2022/06/16 02:32:13;;;;;;;10.07;4.72;;;12.50;99.90;;;;;;5076701;28;20048;-51
2022/06/16 02:34:48;;;;;;;12.82;4.70;;;12.40;99.90;;;;;;5073330;28;20079;-50
2022/06/16 02:37:23;;;;;;;9.73;4.82;;;12.00;99.90;;;;;;5076429;28;20105;-53
2022/06/16 02:40:27;;;;;;;10.95;4.80;;;12.60;99.90;;;;;;5076338;28;20045;-52
2022/06/16 02:42:53;;;;;;;10.68;4.82;;;12.40;99.90;;;;;;5076141;28;20050;-53
2022/06/16 02:46:02;;;;;;;11.68;5.43;;;12.40;99.90;;;;;;5075928;28;20036;-53
2022/06/16 02:48:52;;;;;;;10.27;5.10;;;12.40;99.90;;;;;;5076173;28;20458;-53
2022/06/16 02:51:26;;;;;;;10.60;5.00;;;12.20;99.90;;;;;;5076275;28;20078;-52
2022/06/16 02:54:12;;;;;;;12.98;5.53;;;12.00;99.90;;;;;;5075913;28;20535;-53
2022/06/16 02:56:59;;;;;;;13.65;5.70;;;12.30;99.90;;;;;;5076108;28;20097;-50
2022/06/16 02:59:27;;;;;;;10.20;5.45;;;12.40;99.90;;;;;;5075240;28;20043;-53
2022/06/16 03:02:03;;;;;;;14.50;5.78;;;12.20;99.90;;;;;;5075487;28;20044;-52
2022/06/16 03:04:40;;;;;;;13.88;6.47;;;12.10;99.90;;;;;;5058124;28;20059;-52
2022/06/16 03:07:07;;;;;;;12.57;5.80;;;12.60;99.90;;;;;;5076010;28;20055;-53
2022/06/16 03:09:34;;;;;;;11.45;6.32;;;;;;;;;;5075436;28;20071;-53
2022/06/16 03:12:00;;;;;;;11.73;6.00;;;;;;;;;;5057611;28;20114;-53
2022/06/16 03:14:26;;;;;;;11.48;6.30;;;12.30;99.90;;;;;;5075232;28;20063;-53
2022/06/16 03:16:51;;;;;;;11.10;5.93;;;12.10;99.90;;;;;;5075346;28;20484;-52
2022/06/16 03:19:18;;;;;;;11.30;6.13;;;12.40;99.90;;;;;;5075630;28;20044;-53
2022/06/16 03:21:44;;;;;;;10.10;6.22;;;12.20;99.90;;;;;;5075254;28;20491;-53
2022/06/16 03:24:10;;;;;;;12.63;6.72;;;12.40;99.90;;;;;;5075457;28;20079;-53
2022/06/16 03:26:35;;;;;;;11.00;6.40;;;12.30;99.90;;;;;;5075712;28;20060;-52
2022/06/16 03:29:01;;;;;;;13.18;6.45;;;12.10;99.90;;;;;;5074910;28;20048;-51
2022/06/16 03:31:27;;;;;;;11.80;6.38;;;12.30;99.90;;;;;;5075027;28;20128;-54
2022/06/16 03:33:52;;;;;;;10.75;5.95;;;12.60;99.90;;;;;;5075255;28;20055;-54
2022/06/16 03:36:19;;;;;;;14.52;6.40;;;12.20;99.90;;;;;;5074948;28;20052;-51
2022/06/16 03:38:45;;;;;;;10.55;6.38;;;12.10;99.90;;;;;;5074974;28;20048;-50
2022/06/16 03:41:12;;;;;;;10.85;6.35;;;12.40;99.90;;;;;;5075258;28;20044;-51
2022/06/16 03:43:39;;;;;;;12.68;6.43;;;12.40;99.90;;;;;;5074725;28;20055;-53
2022/06/16 03:46:05;;;;;;;12.18;6.43;;;12.20;99.90;;;;;;5075005;28;20181;-54
2022/06/16 03:48:32;;;;;;;14.02;6.50;;;12.40;99.90;;;;;;5074836;28;20049;-54
2022/06/16 03:50:58;;;;;;;12.02;6.53;;;12.20;99.90;;;;;;5074760;28;20403;-54
2022/06/16 03:53:24;;;;;;;14.93;6.22;;;12.50;99.90;;;;;;5074622;28;20040;-54
2022/06/16 03:55:50;;;;;;;11.70;6.32;;;12.50;99.90;;;;;;5074867;28;20044;-54
2022/06/16 03:58:16;;;;;;;11.32;6.43;;;12.00;99.90;;;;;;5074400;28;20553;-56
2022/06/16 04:00:42;;;;;;;15.70;6.82;;;12.30;99.90;;;;;;5074244;28;20167;-54
2022/06/16 04:05:53;;;;;;;14.13;6.27;;;12.00;99.90;;;;;;5074370;28;20499;-53
2022/06/16 04:08:20;;;;;;;9.70;5.78;;;12.50;99.90;;;;;;5073212;28;20271;-54
2022/06/16 04:10:46;;;;;;;12.52;6.20;;;12.30;99.90;;;;;;5074136;28;20127;-53
2022/06/16 04:13:13;;;;;;;13.20;5.90;;;11.80;99.90;;;;;;5039891;28;20041;-52
2022/06/16 04:15:38;;;;;;;10.13;6.00;;;12.70;99.90;;;;;;5074340;28;20052;-52
2022/06/16 04:18:05;;;;;;;11.95;5.63;;;12.70;99.90;;;;;;5074359;28;20101;-52
2022/06/16 04:20:31;;;;;;;10.93;5.28;;;12.60;99.90;;;;;;5074318;28;20076;-54
2022/06/16 04:22:56;;;;;;;12.57;5.68;;;12.30;99.90;;;;;;5073991;28;20045;-54
2022/06/16 04:25:30;;;;;;;11.18;5.63;;;12.60;99.90;;;;;;5074128;28;20053;-54
2022/06/16 04:28:01;;;;;;;13.63;5.28;;;12.70;99.90;;;;;;5074323;28;20048;-54
2022/06/16 04:30:28;;;;;;;9.75;5.28;;;12.60;99.90;;;;;;5074238;28;20132;-54
2022/06/16 04:32:57;;;;;;;9.35;5.05;;;14.20;99.90;;;;;;5074008;28;20155;-54
2022/06/16 04:35:23;;;;;;;8.23;4.65;;;14.60;99.90;;;;;;5073801;28;20564;-55
2022/06/16 04:37:49;;;;;;;8.15;4.88;;;15.10;99.90;;;;;;5055905;28;20102;-56
2022/06/16 04:40:15;;;;;;;10.20;5.15;;;16.60;99.90;;;;;;5073483;28;20049;-55
2022/06/16 04:42:41;;;;;;;9.95;4.60;;;16.50;99.90;;;;;;5073773;28;20497;-55
2022/06/16 04:45:07;;;;;;;9.73;4.60;;;17.50;99.90;;;;;;5074076;28;20079;-56
2022/06/16 04:47:32;;;;;;;9.75;4.10;;;17.60;99.90;;;;;;5073702;28;20124;-55
2022/06/16 04:49:58;;;;;;;9.57;4.30;;;18.90;99.90;;;;;;5073613;28;20074;-56
2022/06/16 04:52:24;;;;;;;7.00;4.20;;;19.90;99.90;;;;;;5073524;28;20081;-56
2022/06/16 04:54:50;;;;;;;8.43;4.38;;;20.60;99.90;;;;;;5073670;28;20078;-56
2022/06/16 04:57:16;;;;;;;9.43;3.92;;;20.70;99.90;;;;;;5073478;28;20084;-56
2022/06/16 04:59:43;;;;;;;9.93;3.95;;;20.80;99.90;;;;;;5073658;28;20446;-56
2022/06/16 05:02:09;;;;;;;6.63;3.53;;;20.80;99.90;;;;;;5073334;28;20054;-55
2022/06/16 05:04:37;;;;;;;6.60;3.40;;;19.90;99.90;;;;;;5073373;28;20127;-56
2022/06/16 05:07:04;;;;;;;8.20;3.30;;;20.70;99.90;;;;;;5073258;28;20141;-56
2022/06/16 05:09:30;;;;;;;6.68;2.90;;;20.50;99.70;;;;;;5073532;28;20141;-56
2022/06/16 05:11:55;;;;;;;6.20;2.80;;;20.80;99.30;;;;;;5073322;28;20380;-55
2022/06/16 05:14:21;;;;;;;5.70;2.85;;;20.90;98.00;;;;;;5073583;28;20468;-56
2022/06/16 05:16:48;;;;;;;9.93;2.80;;;21.00;97.50;;;;;;5073261;28;20132;-56
2022/06/16 05:19:14;;;;;;;9.02;2.90;;;20.70;97.90;;;;;;5073220;28;20041;-55
2022/06/16 05:21:39;;;;;;;7.65;3.30;;;20.20;99.30;;;;;;5073625;28;20050;-55
2022/06/16 05:24:05;;;;;;;6.60;2.95;;;19.60;99.90;;;;;;5073303;28;20044;-54
2022/06/16 05:26:31;;;;;;;5.55;2.92;;;19.50;99.90;;;;;;5073476;28;20433;-55
2022/06/16 05:28:57;;;;;;;6.68;3.03;;;18.80;99.90;;;;;;5073241;28;20044;-55
2022/06/16 05:31:25;;;;;;;8.98;3.20;;;19.00;99.90;;;;;;5073143;28;20105;-55
2022/06/16 05:33:51;;;;;;;6.43;3.03;;;18.70;99.90;;;;;;5073032;28;20055;-55
2022/06/16 05:36:18;;;;;;;10.27;3.10;;;18.60;99.90;;;;;;5072855;28;20419;-55
2022/06/16 05:38:44;;;;;;;8.90;3.20;;;18.50;99.90;;;;;;5073277;28;20041;-55
2022/06/16 05:41:14;;;;;;;8.57;3.15;;;18.50;99.90;;;;;;5072966;28;20040;-55
2022/06/16 05:43:41;;;;;;;7.65;3.10;;;18.60;99.90;;;;;;5073217;28;20131;-56
2022/06/16 05:46:13;;;;;;;6.53;2.70;;;18.80;99.90;;;;;;5072928;28;20566;-56
2022/06/16 05:48:39;;;;;;;7.00;3.10;;;19.10;99.90;;;;;;5072947;28;20040;-56
2022/06/16 05:51:07;;;;;;;6.35;2.97;;;20.40;99.90;;;;;;5073209;28;20055;-56
2022/06/16 05:53:32;;;;;;;6.22;2.65;;;19.80;99.90;;;;;;5077068;28;20124;-56
2022/06/16 05:55:58;;;;;;;8.90;3.10;;;20.00;99.90;;;;;;5077093;28;20445;-56
2022/06/16 05:58:24;;;;;;;7.43;2.80;;;19.70;99.90;;;;;;5075606;28;20065;-56
2022/06/16 06:00:50;;;;;;;6.93;2.70;;;19.80;99.90;;;;;;5060235;28;20459;-56
2022/06/16 06:03:16;;;;;;;7.05;2.70;;;19.60;99.90;;;;;;5055795;28;20055;-56
2022/06/16 06:05:41;;;;;;;6.68;2.45;;;19.40;99.90;;;;;;5052332;28;20041;-56
2022/06/16 06:16:37;;;;;;;;;;;20.90;99.00;;;;;;5051122;28;20094;-56
2022/06/16 06:19:26;;;;;;;5.22;2.67;;;22.20;94.30;;;;;;5052392;28;20287;-56
2022/06/16 06:22:02;;;;;;;5.20;2.53;;;23.60;83.00;;;;;;5054202;28;20052;-56
2022/06/16 06:24:32;;;;;;;5.28;2.65;;;24.60;74.10;;;;;;5056070;28;20088;-56
2022/06/16 06:27:02;;;;;;;4.85;2.50;;;25.10;66.90;;;;;;5054329;28;20049;-56
2022/06/16 06:29:28;;;;;;;6.45;2.67;;;25.60;63.80;;;;;;5054723;28;20053;-57
2022/06/16 06:31:54;;;;;;;5.78;2.40;;;25.90;61.50;;;;;;5055191;28;20040;-56
2022/06/16 06:34:19;;;;;;;6.70;2.70;;;26.80;59.60;;;;;;5053786;28;20171;-56
2022/06/16 06:36:45;;;;;;;4.78;2.30;;;27.10;57.20;;;;;;5035998;28;20134;-56
2022/06/16 06:39:12;;;;;;;4.25;2.35;;;26.10;66.30;;;;;;5044046;28;20156;-56
2022/06/16 06:41:38;;;;;;;4.45;2.20;;;26.10;57.10;;;;;;5054843;28;20044;-56
2022/06/16 06:44:04;;;;;;;6.47;2.17;;;25.90;57.30;;;;;;5054757;28;20044;-56
2022/06/16 06:46:30;;;;;;;6.03;2.30;;;26.30;57.20;;;;;;5054221;28;20052;-56
2022/06/16 06:48:55;;;;;;;5.40;2.20;;;26.30;64.70;;;;;;5054707;28;20041;-56
2022/06/16 06:51:21;;;;;;;3.45;2.05;;;24.30;63.60;;;;;;5055057;28;20056;-56
2022/06/16 06:53:47;;;;;;;5.35;1.80;;;26.70;54.80;;;;;;5054865;28;20037;-56
2022/06/16 06:56:14;;;;;;;3.10;1.50;;;27.30;54.20;;;;;;5036090;28;20111;-56
2022/06/16 06:58:40;;;;;;;2.70;1.27;;;27.40;53.00;;;;;;5054686;28;20040;-56
2022/06/16 07:01:06;;;;;;;3.53;1.50;;;27.20;59.50;;;;;;5053994;28;20049;-56
2022/06/16 07:03:33;;;;;;;2.70;1.50;;;26.70;52.30;;;;;;5051465;28;20123;-56
2022/06/16 07:06:01;;;;;;;3.35;1.50;;;26.30;52.80;;;;;;5054661;28;20369;-56
2022/06/16 07:08:28;;;;;;;3.50;1.50;;;25.20;61.20;;;;;;5054570;28;20045;-56
2022/06/16 07:10:54;;;;;;;3.42;1.33;;;25.30;53.70;;;;;;5035680;28;20099;-56
2022/06/16 07:13:20;;;;;;;3.67;1.50;;;23.70;63.10;;;;;;5036099;28;20040;-56
2022/06/16 07:15:46;;;;;;;5.50;1.58;;;24.30;55.70;;;;;;5054161;28;20440;-56
2022/06/16 07:18:12;;;;;;;5.72;1.40;;;24.20;67.30;;;;;;5053763;28;20087;-56
2022/06/16 07:20:38;;;;;;;4.65;1.45;;;24.20;57.70;;;;;;5054187;28;20045;-56
2022/06/16 07:23:04;;;;;;;4.05;1.55;;;24.30;58.20;;;;;;5054294;28;20075;-56
2022/06/16 07:25:30;;;;;;;4.68;1.50;;;23.90;69.90;;;;;;5054050;28;20040;-56
2022/06/16 07:27:57;;;;;;;5.50;1.58;;;23.70;69.30;;;;;;5054038;28;20045;-56
2022/06/16 07:30:24;;;;;;;3.03;1.40;;;23.90;58.40;;;;;;5054475;28;20041;-56
2022/06/16 07:32:51;;;;;;;3.22;1.20;;;22.50;67.30;;;;;;5053886;28;20045;-56
2022/06/16 07:35:20;;;;;;;4.55;1.30;;;23.70;58.00;;;;;;5054154;28;20041;-56
2022/06/16 07:37:46;;;;;;;3.45;1.42;;;23.60;57.60;;;;;;5053843;28;20047;-56
2022/06/16 07:40:13;;;;;;;6.38;1.50;;;23.40;58.20;;;;;;5054907;28;20544;-56
2022/06/16 07:42:39;;;;;;;2.25;1.20;;;23.40;57.50;;;;;;5054792;28;20048;-56
2022/06/16 07:45:05;;;;;;;5.35;1.73;;;23.50;57.40;;;;;;5054020;28;20041;-56
2022/06/16 07:47:31;;;;;;;3.40;1.48;;;23.10;58.40;;;;;;5053843;28;20087;-56
2022/06/16 07:49:57;;;;;;;4.05;1.48;;;23.20;68.20;;;;;;5053596;28;20040;-56
2022/06/16 07:52:22;;;;;;;3.50;1.40;;;23.40;67.90;;;;;;5053661;28;20037;-57
2022/06/16 07:54:49;;;;;;;3.38;1.58;;;23.40;58.80;;;;;;5053526;28;20036;-56
2022/06/16 07:57:16;;;;;;;3.13;1.55;;;23.00;66.80;;;;;;5053339;28;20081;-57
2022/06/16 07:59:43;;;;;;;3.47;1.45;;;23.10;59.00;;;;;;5034941;28;20091;-56
2022/06/16 08:02:09;;;;;;;3.00;1.40;;;23.00;59.90;;;;;;5052997;28;20108;-56
2022/06/16 08:04:35;;;;;;;3.53;1.50;;;23.20;59.40;;;;;;5053265;28;20049;-56
2022/06/16 08:07:00;;;;;;;2.95;1.40;;;23.60;59.80;;;;;;5053444;28;20131;-57
2022/06/16 08:09:27;;;;;;;6.75;1.52;;;23.80;58.20;;;;;;5053488;28;20045;-56
2022/06/16 08:12:08;;;;;;;4.43;1.90;;;23.70;67.00;;;;;;5053103;28;20052;-57
2022/06/16 08:14:42;;;;;;;2.55;1.30;;;24.10;58.20;;;;;;5052262;28;20044;-56
2022/06/16 08:17:21;;;;;;;3.38;1.80;;;24.50;67.80;;;;;;5036240;28;20049;-56
2022/06/16 08:19:46;;;;;;;3.50;1.60;;;23.70;58.20;;;;;;5054372;28;20388;-57
2022/06/16 08:22:12;;;;;;;5.15;1.77;;;23.40;59.50;;;;;;5054127;28;20049;-57
2022/06/16 08:24:38;;;;;;;3.58;1.50;;;23.30;58.60;;;;;;5054368;28;20455;-56
2022/06/16 08:27:05;;;;;;;3.42;1.45;;;23.30;59.20;;;;;;5053754;28;20180;-56
2022/06/16 08:29:32;;;;;;;3.97;1.60;;;23.10;58.20;;;;;;5053047;28;20045;-57
2022/06/16 08:31:58;;;;;;;4.78;1.70;;;22.80;66.00;;;;;;5052622;28;20041;-56
2022/06/16 08:34:24;;;;;;;3.80;1.65;;;23.00;58.30;;;;;;5052915;28;20118;-57
2022/06/16 08:36:50;;;;;;;3.30;1.60;;;23.20;65.20;;;;;;5052823;28;20131;-56
2022/06/16 08:39:16;;;;;;;4.55;1.90;;;23.20;58.10;;;;;;5052596;28;20041;-56
2022/06/16 08:41:53;;;;;;;4.82;1.70;;;23.10;57.50;;;;;;5052174;28;20037;-56
2022/06/16 08:44:26;;;;;;;5.03;1.75;;;22.10;66.70;;;;;;5052067;28;20048;-57
2022/06/16 08:47:11;;;;;;;3.20;1.77;;;22.40;58.10;;;;;;5052544;28;20502;-57
2022/06/16 08:49:59;;;;;;;3.95;1.65;;;22.30;59.50;;;;;;5052433;28;20515;-56
2022/06/16 08:52:31;;;;;;;9.02;1.70;;;22.70;68.30;;;;;;5033696;28;20140;-57
2022/06/16 08:55:05;;;;;;;4.65;1.60;;;22.70;59.90;;;;;;5050629;28;20048;-57
2022/06/16 08:57:44;;;;;;;6.25;1.88;;;22.90;59.70;;;;;;5052346;28;20195;-57
2022/06/16 09:00:15;;;;;;;3.83;1.75;;;23.20;60.50;;;;;;5052296;28;20053;-57
2022/06/16 09:03:10;;;;;;;3.22;1.75;;;23.30;58.40;;;;;;5051984;28;20408;-57
2022/06/16 09:05:55;;;;;;;4.00;1.80;;;23.30;57.40;;;;;;5052157;28;20114;-57
2022/06/16 09:08:44;;;;;;;3.42;1.73;;;23.10;57.40;;;;;;5050040;28;20048;-56
2022/06/16 09:11:28;;;;;;;4.38;1.70;;;22.70;58.50;;;;;;5051559;28;20431;-57
2022/06/16 09:14:09;;;;;;;3.90;1.75;;;22.30;59.90;;;;;;5052144;28;20391;-57
2022/06/16 09:16:59;;;;;;;3.38;1.83;;;22.20;70.10;;;;;;5052522;28;20404;-57
2022/06/16 09:19:39;;;;;;;5.68;2.03;;;22.20;61.10;;;;;;5051854;28;20119;-57
2022/06/16 09:22:37;;;;;;;4.85;2.15;;;22.40;62.30;;;;;;5051802;28;20040;-56
2022/06/16 09:25:37;;;;;;;5.88;2.03;;;22.50;60.50;;;;;;5051568;28;20140;-56
2022/06/16 09:28:17;;;;;;;3.20;2.00;;;22.70;61.40;;;;;;5027876;28;20305;-56
2022/06/16 09:30:45;;;;;;;3.22;1.83;;;22.90;60.40;;;;;;5029046;28;20045;-56
2022/06/16 09:33:19;;;;;;;5.90;2.00;;;22.90;60.50;;;;;;5028808;28;20428;-56
2022/06/16 09:36:26;;;;;;;6.50;2.25;;;22.90;59.40;;;;;;5028411;28;20136;-56
2022/06/16 09:39:18;;;;;;;3.90;1.90;;;22.70;60.70;;;;;;4960493;28;20089;-56
2022/06/16 09:45:01;;;;;;;5.28;2.20;;;22.90;60.50;;;;;;5028243;28;20570;-56
2022/06/16 09:47:32;;;;;;;4.10;2.20;;;22.90;60.50;;;;;;5028842;28;20049;-56
2022/06/16 09:50:04;;;;;;;6.40;2.28;;;23.10;61.80;;;;;;5027947;28;20057;-57
2022/06/16 09:52:40;;;;;;;4.55;2.10;;;23.30;61.00;;;;;;5027977;28;20148;-56
2022/06/16 09:55:31;;;;;;;8.52;2.60;;;23.30;69.30;;;;;;5028412;28;20038;-56
2022/06/16 09:58:40;;;;;;;4.57;2.20;;;23.20;60.70;;;;;;5011605;28;20041;-56
2022/06/16 10:01:13;;;;;;;5.45;2.13;;;23.50;68.40;;;;;;5025620;28;20112;-56
2022/06/16 10:03:42;;;;;;;5.75;2.20;;;23.30;61.00;;;;;;5033216;28;20075;-57
2022/06/16 10:06:33;;;;;;;6.55;2.20;;;23.60;62.40;;;;;;5052321;28;20045;-56
2022/06/16 10:09:39;;;;;;;9.48;2.28;;;23.80;61.60;;;;;;5033060;28;20057;-56
2022/06/16 10:12:11;;;;;;;5.80;2.50;;;24.20;61.20;;;;;;5027603;28;20091;-56
2022/06/16 10:14:40;;;;;;;5.55;2.20;;;24.40;60.00;;;;;;5051460;28;20060;-57
2022/06/16 10:17:09;;;;;;;6.93;2.78;;;24.10;65.10;;;;;;5047899;28;20124;-57
2022/06/16 10:19:40;;;;;;;8.48;2.40;;;24.30;58.00;;;;;;5048971;28;20043;-56
2022/06/16 10:22:07;;;;;;;4.45;2.45;;;24.20;57.30;;;;;;5051745;28;20467;-56
2022/06/16 10:24:43;;;;;;;6.07;2.60;;;24.20;57.50;;;;;;5032416;28;20527;-56
2022/06/16 10:27:13;;;;;;;4.68;2.67;;;24.10;58.20;;;;;;5047726;28;20041;-57
2022/06/16 10:29:55;;;;;;;6.90;2.70;;;24.20;58.40;;;;;;5050259;28;20400;-57
2022/06/16 10:32:37;;;;;;;7.82;2.83;;;24.40;57.90;;;;;;5050484;28;20534;-57
2022/06/16 10:35:05;;;;;;;4.82;2.60;;;24.50;57.80;;;;;;5049718;28;20048;-57
2022/06/16 10:37:32;;;;;;;5.78;2.83;;;24.50;58.00;;;;;;5051128;28;20061;-57
2022/06/16 10:40:06;;;;;;;5.97;2.53;;;24.50;56.90;;;;;;5034808;28;20056;-57
2022/06/16 10:42:48;;;;;;;3.75;2.17;;;24.40;58.30;;;;;;5054287;28;20057;-57
2022/06/16 10:45:34;;;;;;;5.95;2.75;;;24.40;57.10;;;;;;5054162;28;20052;-57
2022/06/16 10:48:31;;;;;;;6.30;2.70;;;24.50;63.00;;;;;;5053637;28;20416;-57
2022/06/16 10:51:08;;;;;;;9.07;3.10;;;24.40;62.60;;;;;;5046964;28;20140;-57
2022/06/16 10:53:39;;;;;;;8.95;2.72;;;24.40;56.40;;;;;;5041501;28;20049;-57
2022/06/16 10:56:22;;;;;;;7.07;2.40;;;24.30;56.40;;;;;;5021686;28;20041;-57
2022/06/16 10:59:05;;;;;;;6.75;2.67;;;24.20;56.80;;;;;;5055753;28;20432;-57
2022/06/16 11:01:42;;;;;;;5.20;2.45;;;24.20;57.80;;;;;;5055654;28;20484;-57
2022/06/16 11:04:11;;;;;;;6.25;2.85;;;24.50;58.20;;;;;;5056025;28;20048;-57
2022/06/16 11:06:53;;;;;;;7.53;2.78;;;24.70;58.70;;;;;;5055794;28;20053;-57
2022/06/16 11:09:25;;;;;;;11.10;2.80;;;24.90;57.30;;;;;;5043405;28;20049;-57
2022/06/16 11:12:03;;;;;;;7.07;2.38;;;25.00;58.20;;;;;;5035651;28;20400;-57
2022/06/16 11:14:39;;;;;;;4.78;2.60;;;25.10;58.50;;;;;;5035492;28;20045;-57
2022/06/16 11:17:16;;;;;;;6.65;2.70;;;26.00;64.50;;;;;;5035754;28;20056;-57
2022/06/16 11:19:51;;;;;;;6.43;2.78;;;24.70;55.60;;;;;;5035516;28;20108;-57
2022/06/16 11:22:31;;;;;;;4.93;2.40;;;24.50;56.80;;;;;;5035504;28;20045;-57
2022/06/16 11:25:06;;;;;;;7.78;2.42;;;24.20;58.00;;;;;;5017736;28;20132;-57
2022/06/16 11:27:58;;;;;;;5.30;2.65;;;24.30;59.30;;;;;;5035490;28;20072;-57
2022/06/16 11:30:35;;;;;;;5.50;2.80;;;24.50;59.10;;;;;;5017518;28;20148;-57
2022/06/16 11:33:02;;;;;;;6.95;2.83;;;24.70;58.60;;;;;;5035285;28;20473;-57
2022/06/16 11:35:49;;;;;;;6.90;2.95;;;24.90;58.40;;;;;;5035420;28;20495;-57
2022/06/16 11:38:29;;;;;;;6.45;2.90;;;25.20;57.90;;;;;;5035430;28;20045;-58
2022/06/16 11:41:03;;;;;;;4.82;2.47;;;25.10;62.00;;;;;;5035397;28;20477;-58
2022/06/16 11:44:01;;;;;;;7.63;3.05;;;23.90;61.40;;;;;;5035290;28;20056;-58
2022/06/16 11:46:39;;;;;;;8.40;3.00;;;24.60;55.40;;;;;;5052868;28;20397;-58
2022/06/16 11:49:23;;;;;;;6.30;2.63;;;24.40;57.30;;;;;;5053582;28;20131;-58
2022/06/16 11:51:49;;;;;;;7.82;2.90;;;24.30;57.40;;;;;;5054165;28;20045;-57
2022/06/16 11:54:17;;;;;;;4.60;2.47;;;24.10;57.70;;;;;;5053672;28;20511;-57
2022/06/16 11:56:54;;;;;;;12.73;3.17;;;23.90;58.90;;;;;;5053397;28;20489;-57
2022/06/16 11:59:44;;;;;;;6.68;3.13;;;24.10;59.10;;;;;;5053556;28;20492;-57
2022/06/16 12:02:24;;;;;;;8.13;2.83;;;24.30;58.50;;;;;;5053254;28;20041;-58
2022/06/16 12:05:34;;;;;;;6.30;2.90;;;24.70;57.70;;;;;;5053606;28;20128;-57
2022/06/16 12:08:29;;;;;;;6.70;2.83;;;25.00;55.90;;;;;;4991595;28;20449;-57
2022/06/16 12:11:15;;;;;;;6.68;2.92;;;25.20;58.70;;;;;;4993014;28;20533;-57
2022/06/16 12:13:49;;;;;;;12.70;2.97;;;25.50;57.10;;;;;;4992299;28;20494;-57
2022/06/16 12:16:38;;;;;;;8.45;2.90;;;25.10;62.70;;;;;;4991735;28;20132;-57
2022/06/16 12:19:06;;;;;;;7.85;2.90;;;26.10;55.40;;;;;;4991789;28;20038;-57
2022/06/16 12:21:43;;;;;;;6.25;2.60;;;26.30;54.70;;;;;;4991331;28;20130;-57
2022/06/16 12:24:27;;;;;;;7.28;2.90;;;26.20;55.10;;;;;;4991867;28;20097;-57
2022/06/16 12:26:59;;;;;;;5.32;2.78;;;26.20;55.30;;;;;;4991168;28;20058;-57
2022/06/16 12:29:36;;;;;;;5.15;2.75;;;26.40;54.80;;;;;;4991419;28;20569;-57
2022/06/16 12:32:10;;;;;;;7.03;2.78;;;26.50;54.40;;;;;;4991420;28;20619;-57
2022/06/16 12:34:59;;;;;;;8.70;2.95;;;26.60;52.90;;;;;;4991488;28;20058;-57
2022/06/16 12:37:31;;;;;;;8.90;3.00;;;26.80;58.70;;;;;;4991268;28;20531;-57
2022/06/16 12:40:11;;;;;;;6.05;3.00;;;25.90;58.60;;;;;;4991080;28;20486;-57
2022/06/16 12:42:49;;;;;;;7.03;2.70;;;25.70;52.70;;;;;;4996174;28;20046;-58
2022/06/16 12:45:33;;;;;;;5.15;2.90;;;25.30;53.80;;;;;;5052447;28;20044;-57
2022/06/16 12:48:04;;;;;;;15.00;3.00;;;25.00;54.50;;;;;;5053066;28;20063;-57
2022/06/16 12:50:38;;;;;;;10.07;2.97;;;24.70;55.30;;;;;;5050366;28;20091;-57
2022/06/16 12:53:15;;;;;;;13.77;3.05;;;24.70;57.30;;;;;;5052528;28;20081;-57
2022/06/16 12:55:54;;;;;;;6.13;2.95;;;25.00;56.80;;;;;;5050835;28;20484;-57
2022/06/16 12:58:27;;;;;;;7.07;2.90;;;25.20;56.40;;;;;;5052463;28;20049;-57
2022/06/16 13:01:00;;;;;;;6.47;3.05;;;25.30;55.70;;;;;;5051635;28;20519;-57
2022/06/16 13:03:34;;;;;;;6.90;2.75;;;25.30;55.00;;;;;;5052566;28;20060;-57
2022/06/16 13:06:01;;;;;;;4.60;2.67;;;24.90;56.30;;;;;;5049843;28;20507;-57
2022/06/16 13:08:32;;;;;;;6.38;2.78;;;24.70;57.00;;;;;;5051771;28;20500;-57
2022/06/16 13:11:03;;;;;;;6.72;2.88;;;24.60;57.40;;;;;;5051639;28;20048;-57
2022/06/16 13:13:39;;;;;;;7.82;3.47;;;24.90;57.90;;;;;;5052179;28;20051;-57
2022/06/16 13:16:08;;;;;;;6.07;3.20;;;25.00;56.30;;;;;;5051258;28;20045;-57
2022/06/16 13:18:46;;;;;;;5.82;2.85;;;25.30;56.50;;;;;;5052050;28;20053;-57
2022/06/16 13:21:23;;;;;;;8.18;3.15;;;25.60;56.40;;;;;;5052118;28;20052;-57
2022/06/16 13:23:55;;;;;;;8.07;3.10;;;25.90;55.70;;;;;;5052361;28;20384;-57
2022/06/16 13:26:32;;;;;;;7.82;2.78;;;25.90;55.30;;;;;;5052172;28;20045;-57
2022/06/16 13:29:06;;;;;;;4.38;2.88;;;25.90;55.60;;;;;;5052318;28;20049;-57
2022/06/16 13:32:00;;;;;;;7.97;2.90;;;26.20;54.00;;;;;;5044422;28;20048;-57
2022/06/16 13:34:48;;;;;;;4.97;2.45;;;26.30;55.60;;;;;;5051951;28;20439;-57